Time;durP1;ratioP1;P1;durP2;ratioP2;P2;SDS_P1;SDS_P2;PMS_P1;PMS_P2;Temp;Humidity;BMP_temperature;BMP_pressure;BME280_temperature;BME280_humidity;BME280_pressure;Samples;Min_cycle;Max_cycle;Signal;HPM_P1;HPM_P2
2023/09/02 00:00:02;;;;;;;25.90;19.27;;;;;;;;;;2610446;54;20396;-75
2023/09/02 00:02:29;;;;;;;25.87;18.43;;;;;;;;;;2610433;39;20780;-72
2023/09/02 00:04:55;;;;;;;27.27;18.50;;;;;;;;;;2609684;54;20419;-73
2023/09/02 00:07:21;;;;;;;30.80;20.57;;;;;;;;;;2609955;39;20741;-72
2023/09/02 00:09:48;;;;;;;30.47;18.87;;;;;;;;;;2608569;54;20467;-71
2023/09/02 00:12:14;;;;;;;29.20;18.43;;;;;;;;;;2609050;47;20463;-72
2023/09/02 00:14:40;;;;;;;26.63;18.80;;;;;;;;;;2610193;54;21174;-72
2023/09/02 00:17:06;;;;;;;28.40;19.90;;;;;;;;;;2609284;54;20954;-71
2023/09/02 00:19:32;;;;;;;28.97;22.13;;;;;;;;;;2609695;54;20418;-73
2023/09/02 00:21:58;;;;;;;37.93;20.50;;;;;;;;;;2610199;54;20402;-72
2023/09/02 00:24:24;;;;;;;35.80;23.63;;;;;;;;;;2610120;54;20411;-71
2023/09/02 00:26:50;;;;;;;30.30;20.17;;;;;;;;;;2610685;54;20424;-73
2023/09/02 00:29:16;;;;;;;26.87;20.53;;;;;;;;;;2609797;54;20403;-72
2023/09/02 00:31:42;;;;;;;33.83;21.97;;;;;;;;;;2609904;54;20392;-71
2023/09/02 00:34:08;;;;;;;28.87;21.40;;;;;;;;;;2610464;39;21195;-73
2023/09/02 00:36:34;;;;;;;30.10;21.20;;;;;;;;;;2609278;47;20434;-73
2023/09/02 00:39:00;;;;;;;30.30;20.00;;;;;;;;;;2609926;54;20403;-72
2023/09/02 00:41:38;;;;;;;30.63;21.23;;;;;;;;;;2609791;54;20415;-74
2023/09/02 00:44:05;;;;;;;37.77;22.23;;;;;;;;;;2609949;54;20411;-73
2023/09/02 00:46:31;;;;;;;31.93;21.83;;;;;;;;;;2610377;54;20954;-71
2023/09/02 00:48:57;;;;;;;27.67;20.07;;;;;;;;;;2610016;39;20908;-73
2023/09/02 00:51:23;;;;;;;33.00;22.37;;;;;;;;;;2609494;54;20412;-74
2023/09/02 00:53:49;;;;;;;31.17;21.23;;;;;;;;;;2609394;54;20407;-74
2023/09/02 00:56:16;;;;;;;31.50;20.77;;;;;;;;;;2610371;54;20547;-74
2023/09/02 00:58:42;;;;;;;32.67;21.17;;;;;;;;;;2610185;54;20427;-75
2023/09/02 01:01:09;;;;;;;31.40;21.17;;;;;;;;;;2609312;46;20467;-75
2023/09/02 01:03:36;;;;;;;29.23;19.37;;;;;;;;;;2607870;54;20399;-74
2023/09/02 01:06:05;;;;;;;30.40;21.80;;;;;;;;;;2608726;46;20431;-75
2023/09/02 01:08:32;;;;;;;28.80;20.83;;;;;;;;;;2609302;54;20412;-74
2023/09/02 01:10:59;;;;;;;33.57;20.57;;;;;;;;;;2609540;54;20467;-74
2023/09/02 01:13:25;;;;;;;26.30;20.83;;;;;;;;;;2609378;54;20400;-76
2023/09/02 01:15:54;;;;;;;29.83;19.60;;;;;;;;;;2609558;54;20427;-76
2023/09/02 01:18:21;;;;;;;30.40;20.87;;;;;;;;;;2611420;54;21003;-76
2023/09/02 01:20:50;;;;;;;29.93;21.63;;;;;;;;;;2610191;54;20462;-76
2023/09/02 01:23:28;;;;;;;28.67;20.67;;;;;;;;;;2609972;54;20426;-76
2023/09/02 01:26:13;;;;;;;28.50;20.43;;;;;;;;;;2609387;54;20408;-76
2023/09/02 01:28:41;;;;;;;28.73;20.40;;;;;;;;;;2609672;54;20447;-75
2023/09/02 01:31:08;;;;;;;31.30;21.43;;;;;;;;;;2610644;54;20392;-76
2023/09/02 01:33:36;;;;;;;33.13;19.40;;;;;;;;;;2609726;39;21089;-76
2023/09/02 01:36:02;;;;;;;27.20;20.20;;;;;;;;;;2609718;54;20454;-76
2023/09/02 01:38:31;;;;;;;34.30;21.60;;;;;;;;;;2610426;54;20454;-75
2023/09/02 01:40:58;;;;;;;27.27;19.47;;;;;;;;;;2610579;54;20420;-75
2023/09/02 01:43:25;;;;;;;30.83;19.83;;;;;;;;;;2610413;39;20824;-76
2023/09/02 01:45:52;;;;;;;33.30;21.10;;;;;;;;;;2610474;54;21340;-76
2023/09/02 01:48:18;;;;;;;30.80;19.87;;;;;;;;;;2610854;54;20428;-77
2023/09/02 01:50:45;;;;;;;32.07;21.03;;;;;;;;;;2610184;47;20435;-75
2023/09/02 01:53:11;;;;;;;30.90;19.80;;;;;;;;;;2609848;39;20855;-76
2023/09/02 01:55:37;;;;;;;30.60;20.80;;;;;;;;;;2609226;54;20430;-76
2023/09/02 01:58:03;;;;;;;33.73;21.03;;;;;;;;;;2608686;47;20415;-75
2023/09/02 02:00:29;;;;;;;37.50;21.17;;;;;;;;;;2609944;54;20399;-76
2023/09/02 02:02:56;;;;;;;30.43;20.70;;;;;;;;;;2610047;47;20527;-77
2023/09/02 02:05:45;;;;;;;30.87;20.13;;;;;;;;;;2609330;47;21197;-76
2023/09/02 02:08:13;;;;;;;30.73;19.60;;;;;;;;;;2610303;54;20450;-76
2023/09/02 02:10:40;;;;;;;29.63;21.73;;;;;;;;;;2610476;39;20831;-76
2023/09/02 02:13:07;;;;;;;28.00;20.57;;;;;;;;;;2609758;54;20431;-75
2023/09/02 02:15:34;;;;;;;34.10;20.43;;;;;;;;;;2609412;47;20432;-76
2023/09/02 02:18:00;;;;;;;33.13;21.47;;;;;;;;;;2610267;54;20390;-76
2023/09/02 02:20:30;;;;;;;35.10;21.33;;;;;;;;;;2610506;39;20853;-78
2023/09/02 02:22:56;;;;;;;34.00;20.50;;;;;;;;;;2610754;54;20398;-76
2023/09/02 02:25:22;;;;;;;32.97;21.20;;;;;;;;;;2610298;54;20431;-76
2023/09/02 02:27:48;;;;;;;38.13;21.80;;;;;;;;;;2611169;54;20957;-76
2023/09/02 02:30:15;;;;;;;28.90;20.30;;;;;;;;;;2610628;54;20431;-76
2023/09/02 02:32:41;;;;;;;37.97;21.17;;;;;;;;;;2611157;54;20523;-75
2023/09/02 02:35:07;;;;;;;34.40;20.70;;;;;;;;;;2610370;54;20547;-76
2023/09/02 02:37:33;;;;;;;35.07;23.07;;;;;;;;;;2611140;54;20396;-76
2023/09/02 02:39:59;;;;;;;34.23;21.70;;;;;;;;;;2610859;54;20435;-76
2023/09/02 02:42:25;;;;;;;35.27;20.60;;;;;;;;;;2610894;47;20407;-75
2023/09/02 02:44:53;;;;;;;33.50;20.80;;;;;;;;;;2609976;54;20527;-76
2023/09/02 02:47:19;;;;;;;40.63;21.50;;;;;;;;;;2611049;54;20536;-76
2023/09/02 02:49:46;;;;;;;29.03;20.47;;;;;;;;;;2610783;54;20410;-76
2023/09/02 02:52:12;;;;;;;27.67;18.53;;;;;;;;;;2609283;54;20560;-76
2023/09/02 02:54:38;;;;;;;36.03;20.13;;;;;;;;;;2610684;47;20461;-75
2023/09/02 02:57:05;;;;;;;31.47;19.60;;;;;;;;;;2610806;54;20388;-75
2023/09/02 02:59:31;;;;;;;32.60;18.37;;;;;;;;;;2611025;54;20448;-76
2023/09/02 03:01:57;;;;;;;30.03;18.50;;;;;;;;;;2609479;54;20420;-76
2023/09/02 03:04:23;;;;;;;27.50;18.77;;;;;;;;;;2609122;47;20469;-76
2023/09/02 03:06:49;;;;;;;29.63;18.77;;;;;;;;;;2610327;54;20412;-76
2023/09/02 03:09:16;;;;;;;37.27;19.17;;;;;;;;;;2610844;54;21397;-77
2023/09/02 03:11:42;;;;;;;31.37;18.00;;;;;;;;;;2610260;54;20495;-76
2023/09/02 03:14:09;;;;;;;29.40;18.73;;;;;;;;;;2611382;54;20412;-76
2023/09/02 03:16:35;;;;;;;34.37;19.40;;;;;;;;;;2609798;54;20961;-76
2023/09/02 03:19:01;;;;;;;25.50;18.57;;;;;;;;;;2610627;54;20546;-76
2023/09/02 03:21:27;;;;;;;31.87;17.90;;;;;;;;;;2610061;54;20418;-75
2023/09/02 03:23:53;;;;;;;27.67;18.20;;;;;;;;;;2610459;54;20415;-76
2023/09/02 03:26:22;;;;;;;27.03;18.50;;;;;;;;;;2611125;54;20427;-76
2023/09/02 03:28:49;;;;;;;25.83;16.50;;;;;;;;;;2611240;39;20852;-76
2023/09/02 03:31:15;;;;;;;26.83;16.10;;;;;;;;;;2610013;54;20428;-76
2023/09/02 03:33:41;;;;;;;24.33;16.10;;;;;;;;;;2610829;54;21674;-76
2023/09/02 03:36:07;;;;;;;23.70;16.47;;;;;;;;;;2610737;54;20375;-75
2023/09/02 03:38:33;;;;;;;25.13;16.33;;;;;;;;;;2610492;54;20399;-76
2023/09/02 03:40:59;;;;;;;22.90;15.73;;;;;;;;;;2610512;39;20945;-75
2023/09/02 03:43:25;;;;;;;26.40;14.80;;;;;;;;;;2609643;47;20522;-75
2023/09/02 03:45:51;;;;;;;24.43;14.33;;;;;;;;;;2608784;54;20531;-75
2023/09/02 03:48:20;;;;;;;22.83;14.67;;;;;;;;;;2610846;54;20478;-76
2023/09/02 03:51:22;;;;;;;20.77;13.97;;;;;;;;;;2611065;54;20479;-75
2023/09/02 03:53:48;;;;;;;26.20;15.70;;;;;;;;;;2609232;54;20456;-76
2023/09/02 03:56:14;;;;;;;29.03;15.60;;;;;;;;;;2608766;54;21249;-76
2023/09/02 03:58:41;;;;;;;23.80;14.07;;;;;;;;;;2609364;54;20411;-75
2023/09/02 04:01:07;;;;;;;25.00;14.73;;;;;;;;;;2608317;54;20431;-75
2023/09/02 04:03:37;;;;;;;24.37;15.10;;;;;;;;;;2608312;54;20442;-76
2023/09/02 04:06:03;;;;;;;26.70;14.83;;;;;;;;;;2607368;47;20427;-75
2023/09/02 04:08:33;;;;;;;23.77;16.57;;;;;;;;;;2609469;47;20415;-76
2023/09/02 04:10:59;;;;;;;21.73;14.70;;;;;;;;;;2609549;54;20452;-76
2023/09/02 04:13:26;;;;;;;26.70;17.50;;;;;;;;;;2609479;54;20951;-75
2023/09/02 04:15:56;;;;;;;23.17;15.43;;;;;;;;;;2608396;54;20922;-75
2023/09/02 04:18:23;;;;;;;24.60;16.73;;;;;;;;;;2608762;54;20431;-76
2023/09/02 04:20:49;;;;;;;27.20;15.90;;;;;;;;;;2609526;39;20869;-76
2023/09/02 04:23:15;;;;;;;26.03;15.03;;;;;;;;;;2608660;54;20416;-77
2023/09/02 04:25:45;;;;;;;22.10;15.23;;;;;;;;;;2609436;54;20396;-76
2023/09/02 04:28:11;;;;;;;22.90;15.70;;;;;;;;;;2609898;54;20407;-77
2023/09/02 04:30:37;;;;;;;25.70;16.30;;;;;;;;;;2610723;54;20387;-76
2023/09/02 04:33:04;;;;;;;26.40;14.40;;;;;;;;;;2609611;54;20407;-76
2023/09/02 04:35:42;;;;;;;25.13;15.93;;;;;;;;;;2609226;54;20427;-76
2023/09/02 04:38:08;;;;;;;25.33;14.53;;;;;;;;;;2609160;47;20431;-76
2023/09/02 04:40:37;;;;;;;23.00;16.00;;;;;;;;;;2610332;54;20490;-75
2023/09/02 04:43:04;;;;;;;27.47;17.80;;;;;;;;;;2610335;39;20653;-73
2023/09/02 04:45:39;;;;;;;22.00;14.93;;;;;;;;;;2609505;54;20443;-74
2023/09/02 04:48:06;;;;;;;20.90;15.43;;;;;;;;;;2609696;54;20419;-74
2023/09/02 04:50:32;;;;;;;26.60;14.60;;;;;;;;;;2609596;54;20467;-74
2023/09/02 04:52:59;;;;;;;16.97;14.33;;;;;;;;;;2609181;54;20769;-74
2023/09/02 04:55:25;;;;;;;21.03;14.80;;;;;;;;;;2610893;39;20802;-74
2023/09/02 04:57:52;;;;;;;19.67;13.30;;;;;;;;;;2609359;54;20403;-73
2023/09/02 05:00:19;;;;;;;23.03;14.80;;;;;;;;;;2608881;54;20423;-74
2023/09/02 05:02:46;;;;;;;22.47;14.00;;;;;;;;;;2608926;54;20479;-73
2023/09/02 05:05:14;;;;;;;23.20;13.50;;;;;;;;;;2610574;39;20796;-74
2023/09/02 05:07:40;;;;;;;26.93;13.87;;;;;;;;;;2610460;54;20503;-74
2023/09/02 05:10:07;;;;;;;15.90;11.87;;;;;;;;;;2610573;54;20396;-74
2023/09/02 05:12:33;;;;;;;16.43;10.57;;;;;;;;;;2609164;54;21288;-74
2023/09/02 05:15:00;;;;;;;12.27;10.53;;;;;;;;;;2609269;47;20491;-73
2023/09/02 05:17:27;;;;;;;19.80;10.37;;;;;;;;;;2610369;54;20384;-73
2023/09/02 05:19:53;;;;;;;13.07;8.90;;;;;;;;;;2610420;54;20973;-75
2023/09/02 05:22:19;;;;;;;11.97;9.40;;;;;;;;;;2609538;50;20456;-74
2023/09/02 05:24:45;;;;;;;9.00;7.80;;;;;;;;;;2611014;54;20422;-74
2023/09/02 05:27:11;;;;;;;11.10;8.23;;;;;;;;;;2610289;54;20882;-74
2023/09/02 05:29:37;;;;;;;12.57;7.77;;;;;;;;;;2610412;54;20392;-74
2023/09/02 05:32:04;;;;;;;10.97;8.23;;;;;;;;;;2609427;46;20415;-73
2023/09/02 05:34:30;;;;;;;10.47;7.80;;;;;;;;;;2609231;54;20395;-74
2023/09/02 05:36:56;;;;;;;13.50;7.20;;;;;;;;;;2610115;54;20427;-74
2023/09/02 05:39:22;;;;;;;11.30;8.50;;;;;;;;;;2610298;54;20411;-74
2023/09/02 05:41:48;;;;;;;9.77;7.17;;;;;;;;;;2610264;54;20935;-73
2023/09/02 05:44:14;;;;;;;9.20;7.77;;;;;;;;;;2610122;54;20411;-76
2023/09/02 05:46:40;;;;;;;7.27;6.30;;;;;;;;;;2610378;54;20399;-79
2023/09/02 05:49:06;;;;;;;9.50;6.90;;;;;;;;;;2609584;47;20458;-73
2023/09/02 05:51:32;;;;;;;7.13;6.10;;;;;;;;;;2609297;47;20438;-74
2023/09/02 05:53:58;;;;;;;8.20;6.90;;;;;;;;;;2606598;47;20403;-73
2023/09/02 05:56:25;;;;;;;7.40;6.33;;;;;;;;;;2610547;54;20434;-74
2023/09/02 05:58:51;;;;;;;7.07;5.63;;;;;;;;;;2611433;39;21000;-74
2023/09/02 06:01:17;;;;;;;7.30;4.20;;;;;;;;;;2609088;46;20585;-74
2023/09/02 06:03:43;;;;;;;8.83;5.13;;;;;;;;;;2611281;54;20398;-74
2023/09/02 06:06:12;;;;;;;10.47;5.17;;;;;;;;;;2611812;39;20867;-74
2023/09/02 06:08:38;;;;;;;5.37;4.03;;;;;;;;;;2612459;54;20384;-74
2023/09/02 06:11:05;;;;;;;5.47;4.30;;;;;;;;;;2613105;54;20491;-74
2023/09/02 06:13:31;;;;;;;6.43;4.80;;;;;;;;;;2613458;54;20977;-74
2023/09/02 06:15:59;;;;;;;4.60;4.20;;;;;;;;;;2612565;54;20403;-73
2023/09/02 06:18:25;;;;;;;4.53;3.87;;;;;;;;;;2608675;54;20546;-74
2023/09/02 06:20:51;;;;;;;5.70;4.40;;;;;;;;;;2611016;54;20941;-73
2023/09/02 06:23:17;;;;;;;3.90;3.50;;;;;;;;;;2613301;39;20836;-73
2023/09/02 06:25:43;;;;;;;5.40;4.70;;;;;;;;;;2612102;47;20407;-74
2023/09/02 06:28:10;;;;;;;7.63;4.90;;;;;;;;;;2613191;39;20777;-74
2023/09/02 06:30:39;;;;;;;5.77;5.10;;;;;;;;;;2612796;47;20427;-73
2023/09/02 06:33:05;;;;;;;5.27;4.77;;;;;;;;;;2612371;54;20478;-74
2023/09/02 06:35:31;;;;;;;5.57;4.40;;;;;;;;;;2612899;54;20981;-73
2023/09/02 06:37:57;;;;;;;5.40;4.00;;;;;;;;;;2612739;54;20455;-74
2023/09/02 06:40:23;;;;;;;5.30;4.27;;;;;;;;;;2613915;54;20403;-74
2023/09/02 06:42:51;;;;;;;6.43;4.97;;;;;;;;;;2613217;54;20407;-73
2023/09/02 06:45:17;;;;;;;4.87;4.43;;;;;;;;;;2613268;39;20843;-73
2023/09/02 06:47:43;;;;;;;8.70;4.10;;;;;;;;;;2612464;54;20411;-73
2023/09/02 06:50:09;;;;;;;6.40;4.60;;;;;;;;;;2611226;47;20511;-74
2023/09/02 06:52:35;;;;;;;5.00;4.53;;;;;;;;;;2613343;54;20411;-74
2023/09/02 06:55:03;;;;;;;6.00;5.40;;;;;;;;;;2611178;54;20416;-78
2023/09/02 06:57:29;;;;;;;6.67;4.50;;;;;;;;;;2613063;54;20408;-73
2023/09/02 06:59:56;;;;;;;5.17;3.80;;;;;;;;;;2612532;54;21302;-73
2023/09/02 07:02:22;;;;;;;6.00;4.53;;;;;;;;;;2608950;47;20412;-74
2023/09/02 07:04:49;;;;;;;8.10;3.90;;;;;;;;;;2612486;46;20443;-74
2023/09/02 07:07:15;;;;;;;4.03;3.63;;;;;;;;;;2612815;54;20519;-73
2023/09/02 07:09:41;;;;;;;4.73;3.63;;;;;;;;;;2612096;54;21964;-74
2023/09/02 07:12:07;;;;;;;4.10;3.43;;;;;;;;;;2612204;54;20451;-74
2023/09/02 07:14:33;;;;;;;8.10;3.97;;;;;;;;;;2611055;47;20475;-76
2023/09/02 07:16:59;;;;;;;4.80;4.40;;;;;;;;;;2611928;54;20431;-74
2023/09/02 07:19:25;;;;;;;5.00;3.73;;;;;;;;;;2611259;47;20426;-74
2023/09/02 07:21:51;;;;;;;6.23;4.57;;;;;;;;;;2611364;54;20420;-74
2023/09/02 07:24:17;;;;;;;4.50;3.97;;;;;;;;;;2612084;54;20452;-74
2023/09/02 07:26:44;;;;;;;4.90;3.93;;;;;;;;;;2610605;54;20463;-74
2023/09/02 07:29:12;;;;;;;4.30;3.90;;;;;;;;;;2611703;47;20452;-74
2023/09/02 07:31:38;;;;;;;4.50;4.10;;;;;;;;;;2610106;54;20427;-73
2023/09/02 07:34:04;;;;;;;5.87;5.37;;;;;;;;;;2611023;54;21366;-73
2023/09/02 07:36:30;;;;;;;4.87;4.33;;;;;;;;;;2611733;54;20957;-73
2023/09/02 07:38:56;;;;;;;5.33;4.10;;;;;;;;;;2612379;54;20438;-74
2023/09/02 07:41:23;;;;;;;3.37;3.07;;;;;;;;;;2613053;54;21269;-73
2023/09/02 07:43:49;;;;;;;3.57;3.03;;;;;;;;;;2611686;39;21296;-73
2023/09/02 07:46:15;;;;;;;3.40;3.10;;;;;;;;;;2612136;47;20999;-72
2023/09/02 07:48:43;;;;;;;4.20;3.13;;;;;;;;;;2612711;39;20852;-74
2023/09/02 07:51:09;;;;;;;6.20;3.83;;;;;;;;;;2611573;47;20961;-73
2023/09/02 07:53:35;;;;;;;8.00;3.43;;;;;;;;;;2611533;47;20419;-73
2023/09/02 07:56:01;;;;;;;3.93;3.03;;;;;;;;;;2611345;54;20423;-73
2023/09/02 07:58:27;;;;;;;3.90;3.47;;;;;;;;;;2612650;54;20388;-73
2023/09/02 08:00:58;;;;;;;4.07;3.63;;;;;;;;;;2612414;54;20416;-73
2023/09/02 08:03:24;;;;;;;3.40;3.10;;;;;;;;;;2611107;54;20403;-74
2023/09/02 08:05:50;;;;;;;5.47;3.50;;;;;;;;;;2612792;54;20438;-73
2023/09/02 08:08:16;;;;;;;3.70;3.40;;;;;;;;;;2613692;39;21174;-73
2023/09/02 08:10:43;;;;;;;5.50;2.80;;;;;;;;;;2611891;39;21063;-74
2023/09/02 08:13:10;;;;;;;3.83;3.40;;;;;;;;;;2612533;54;21012;-73
2023/09/02 08:15:39;;;;;;;2.83;2.27;;;;;;;;;;2612510;54;20431;-73
2023/09/02 08:18:05;;;;;;;3.50;2.73;;;;;;;;;;2611363;54;20657;-73
2023/09/02 08:20:31;;;;;;;3.03;2.73;;;;;;;;;;2612821;54;20922;-73
2023/09/02 08:22:57;;;;;;;3.43;2.70;;;;;;;;;;2612441;54;21150;-74
2023/09/02 08:25:24;;;;;;;4.70;4.20;;;;;;;;;;2612022;54;20420;-73
2023/09/02 08:27:50;;;;;;;2.93;2.67;;;;;;;;;;2610246;54;20402;-74
2023/09/02 08:30:17;;;;;;;3.93;3.57;;;;;;;;;;2613284;54;20416;-74
2023/09/02 08:32:43;;;;;;;4.53;3.17;;;;;;;;;;2612894;46;20447;-74
2023/09/02 08:35:09;;;;;;;4.47;3.60;;;;;;;;;;2612008;54;20427;-73
2023/09/02 08:37:37;;;;;;;4.53;3.60;;;;;;;;;;2613132;54;20411;-73
2023/09/02 08:40:03;;;;;;;5.87;3.60;;;;;;;;;;2613398;39;21242;-74
2023/09/02 08:42:30;;;;;;;4.03;3.67;;;;;;;;;;2612302;46;20418;-74
2023/09/02 08:44:56;;;;;;;6.43;3.43;;;;;;;;;;2611417;54;20451;-73
2023/09/02 08:47:25;;;;;;;5.20;4.33;;;;;;;;;;2613133;54;20969;-75
2023/09/02 08:49:52;;;;;;;3.93;3.23;;;;;;;;;;2611930;54;20395;-73
2023/09/02 08:52:19;;;;;;;7.70;4.20;;;;;;;;;;2611416;47;20962;-74
2023/09/02 08:54:45;;;;;;;4.47;3.60;;;;;;;;;;2611446;39;20630;-73
2023/09/02 08:57:16;;;;;;;4.50;4.10;;;;;;;;;;2612573;54;20399;-73
2023/09/02 08:59:42;;;;;;;4.13;3.83;;;;;;;;;;2611784;54;20422;-74
2023/09/02 09:02:11;;;;;;;5.57;4.13;;;;;;;;;;2609340;47;20424;-73
2023/09/02 09:04:38;;;;;;;5.33;4.83;;;;;;;;;;2609043;54;20444;-73
2023/09/02 09:07:06;;;;;;;5.43;4.93;;;;;;;;;;2612823;54;20404;-73
2023/09/02 09:09:35;;;;;;;4.90;4.40;;;;;;;;;;2609811;54;20411;-74
2023/09/02 09:12:02;;;;;;;4.70;4.40;;;;;;;;;;2610283;54;20460;-73
2023/09/02 09:14:30;;;;;;;5.03;4.50;;;;;;;;;;2612988;39;20824;-73
2023/09/02 09:16:57;;;;;;;4.23;3.90;;;;;;;;;;2612434;54;20426;-74
2023/09/02 09:19:23;;;;;;;4.93;4.53;;;;;;;;;;2612030;54;20395;-73
2023/09/02 09:21:49;;;;;;;5.47;4.93;;;;;;;;;;2611158;54;20403;-73
2023/09/02 09:24:15;;;;;;;5.10;4.70;;;;;;;;;;2611869;54;20454;-72
2023/09/02 09:26:43;;;;;;;4.90;4.60;;;;;;;;;;2612368;54;21322;-72
2023/09/02 09:29:13;;;;;;;5.80;5.40;;;;;;;;;;2611399;54;20946;-72
2023/09/02 09:31:39;;;;;;;5.83;5.33;;;;;;;;;;2612377;54;20423;-72
2023/09/02 09:34:06;;;;;;;7.87;4.83;;;;;;;;;;2611828;54;20538;-72
2023/09/02 09:36:33;;;;;;;5.63;5.13;;;;;;;;;;2611960;39;20880;-72
2023/09/02 09:39:00;;;;;;;5.37;4.80;;;;;;;;;;2611746;47;21013;-72
2023/09/02 09:41:26;;;;;;;6.37;5.77;;;;;;;;;;2611472;54;20534;-72
2023/09/02 09:44:08;;;;;;;5.60;5.20;;;;;;;;;;2610532;54;20419;-72
2023/09/02 09:46:54;;;;;;;9.13;4.90;;;;;;;;;;2612394;39;20465;-73
2023/09/02 09:49:23;;;;;;;5.40;5.10;;;;;;;;;;2612431;54;20411;-72
2023/09/02 09:52:08;;;;;;;5.43;4.93;;;;;;;;;;2613114;31;20873;-72
2023/09/02 09:54:38;;;;;;;5.00;4.60;;;;;;;;;;2612024;47;20388;-73
2023/09/02 09:57:08;;;;;;;7.47;5.20;;;;;;;;;;2611295;54;20410;-73
2023/09/02 09:59:34;;;;;;;6.27;5.67;;;;;;;;;;2610590;54;20427;-72
2023/09/02 10:02:02;;;;;;;5.50;5.00;;;;;;;;;;2611475;54;20396;-73
2023/09/02 10:04:28;;;;;;;5.57;4.77;;;;;;;;;;2611860;54;20416;-73
2023/09/02 10:06:58;;;;;;;5.40;5.00;;;;;;;;;;2612172;54;20394;-73
2023/09/02 10:09:24;;;;;;;4.50;4.20;;;;;;;;;;2612461;54;20395;-73
2023/09/02 10:11:50;;;;;;;5.10;4.80;;;;;;;;;;2612319;39;20887;-73
2023/09/02 10:14:17;;;;;;;5.50;4.33;;;;;;;;;;2611319;54;20386;-72
2023/09/02 10:16:44;;;;;;;4.70;4.30;;;;;;;;;;2612546;54;20419;-72
2023/09/02 10:19:11;;;;;;;5.63;5.00;;;;;;;;;;2612239;39;20750;-70
2023/09/02 10:21:41;;;;;;;5.20;4.90;;;;;;;;;;2611962;54;20419;-71
2023/09/02 10:24:10;;;;;;;5.50;4.77;;;;;;;;;;2612412;54;20928;-72
2023/09/02 10:26:37;;;;;;;5.07;4.70;;;;;;;;;;2611290;54;20404;-71
2023/09/02 10:29:08;;;;;;;6.30;5.70;;;;;;;;;;2610620;54;20454;-71
2023/09/02 10:31:38;;;;;;;5.17;4.87;;;;;;;;;;2612286;54;20415;-72
2023/09/02 10:34:08;;;;;;;5.03;4.63;;;;;;;;;;2613268;54;20446;-74
2023/09/02 10:36:37;;;;;;;5.20;4.90;;;;;;;;;;2611524;54;20404;-73
2023/09/02 10:39:04;;;;;;;4.93;4.53;;;;;;;;;;2612026;54;20411;-73
2023/09/02 10:41:31;;;;;;;5.00;4.60;;;;;;;;;;2612956;54;20396;-73
2023/09/02 10:43:57;;;;;;;6.00;5.60;;;;;;;;;;2612246;47;20453;-72
2023/09/02 10:46:24;;;;;;;5.67;5.17;;;;;;;;;;2611423;54;20427;-72
2023/09/02 10:48:50;;;;;;;5.83;5.43;;;;;;;;;;2612416;54;20443;-72
2023/09/02 10:51:17;;;;;;;6.20;5.57;;;;;;;;;;2612502;54;20399;-73
2023/09/02 10:53:51;;;;;;;5.63;4.87;;;;;;;;;;2611962;54;20531;-73
2023/09/02 10:56:31;;;;;;;5.50;5.00;;;;;;;;;;2612813;54;20412;-73
2023/09/02 10:58:57;;;;;;;6.30;5.80;;;;;;;;;;2613391;54;20418;-73
2023/09/02 11:01:24;;;;;;;6.53;6.03;;;;;;;;;;2610602;54;20954;-73
2023/09/02 11:03:54;;;;;;;8.37;6.57;;;;;;;;;;2612791;54;20399;-74
2023/09/02 11:06:20;;;;;;;7.90;7.30;;;;;;;;;;2611908;51;20404;-74
2023/09/02 11:08:48;;;;;;;6.47;6.07;;;;;;;;;;2612832;54;20421;-73
2023/09/02 11:11:15;;;;;;;7.83;7.23;;;;;;;;;;2611923;54;21059;-73
2023/09/02 11:14:00;;;;;;;8.17;7.50;;;;;;;;;;2613112;54;20499;-72
2023/09/02 11:16:26;;;;;;;6.73;6.23;;;;;;;;;;2611595;54;20407;-72
2023/09/02 11:18:53;;;;;;;8.17;7.17;;;;;;;;;;2611693;54;20526;-73
2023/09/02 11:21:41;;;;;;;6.80;6.40;;;;;;;;;;2612905;39;21075;-74
2023/09/02 11:24:13;;;;;;;7.80;7.20;;;;;;;;;;2612503;54;20404;-75
2023/09/02 11:26:53;;;;;;;7.00;6.50;;;;;;;;;;2611867;54;20416;-75
2023/09/02 11:29:30;;;;;;;7.33;6.73;;;;;;;;;;2612659;50;20485;-74
2023/09/02 11:31:56;;;;;;;6.80;6.40;;;;;;;;;;2613514;54;20500;-75
2023/09/02 11:34:24;;;;;;;6.60;6.20;;;;;;;;;;2612793;54;20400;-75
2023/09/02 11:36:51;;;;;;;7.70;7.20;;;;;;;;;;2612570;51;20423;-75
2023/09/02 11:39:17;;;;;;;7.73;6.90;;;;;;;;;;2613346;54;20972;-75
2023/09/02 11:41:44;;;;;;;7.30;6.80;;;;;;;;;;2613582;54;20412;-75
2023/09/02 11:44:13;;;;;;;7.30;6.80;;;;;;;;;;2612952;54;20400;-71
2023/09/02 11:46:39;;;;;;;6.70;6.17;;;;;;;;;;2611102;54;20487;-72
2023/09/02 11:49:24;;;;;;;7.67;7.17;;;;;;;;;;2612996;54;20434;-73
2023/09/02 11:51:50;;;;;;;6.83;6.43;;;;;;;;;;2612421;54;20982;-69
2023/09/02 11:54:17;;;;;;;7.53;7.03;;;;;;;;;;2611374;47;20526;-70
2023/09/02 11:56:54;;;;;;;7.10;6.70;;;;;;;;;;2612331;54;20434;-70
2023/09/02 11:59:21;;;;;;;6.57;6.03;;;;;;;;;;2612945;54;20423;-70
2023/09/02 12:01:47;;;;;;;9.10;6.87;;;;;;;;;;2610887;54;21051;-70
2023/09/02 12:04:13;;;;;;;6.70;6.13;;;;;;;;;;2611631;54;20418;-71
2023/09/02 12:06:39;;;;;;;6.50;6.17;;;;;;;;;;2610837;54;20423;-72
2023/09/02 12:09:06;;;;;;;6.47;6.17;;;;;;;;;;2612960;54;20420;-70
2023/09/02 12:11:32;;;;;;;6.97;6.47;;;;;;;;;;2611427;54;20443;-72
2023/09/02 12:13:59;;;;;;;6.40;6.00;;;;;;;;;;2612391;39;20905;-71
2023/09/02 12:16:26;;;;;;;7.47;7.07;;;;;;;;;;2611912;54;20439;-71
2023/09/02 12:18:52;;;;;;;7.70;7.20;;;;;;;;;;2607265;54;20416;-72
2023/09/02 12:21:18;;;;;;;7.87;7.20;;;;;;;;;;2608670;54;20395;-71
2023/09/02 12:23:45;;;;;;;7.77;7.33;;;;;;;;;;2606612;54;20435;-70
2023/09/02 12:26:11;;;;;;;8.07;7.57;;;;;;;;;;2608678;54;20424;-72
2023/09/02 12:28:37;;;;;;;8.33;7.73;;;;;;;;;;2611057;54;21548;-71
2023/09/02 12:31:04;;;;;;;8.50;7.70;;;;;;;;;;2613218;39;20856;-70
2023/09/02 12:33:31;;;;;;;9.67;8.97;;;;;;;;;;2612669;54;20428;-70
2023/09/02 12:35:57;;;;;;;8.90;8.20;;;;;;;;;;2611356;54;20438;-72
2023/09/02 12:38:23;;;;;;;9.53;8.73;;;;;;;;;;2612769;54;20390;-71
2023/09/02 12:40:56;;;;;;;10.23;9.50;;;;;;;;;;2613211;39;20561;-72
2023/09/02 12:43:27;;;;;;;9.77;8.97;;;;;;;;;;2611942;51;20428;-71
2023/09/02 12:45:53;;;;;;;11.60;10.80;;;;;;;;;;2612477;54;20438;-70
2023/09/02 12:48:19;;;;;;;11.87;10.87;;;;;;;;;;2613258;39;20788;-70
2023/09/02 12:50:45;;;;;;;13.00;12.03;;;;;;;;;;2613414;39;20805;-72
2023/09/02 12:53:13;;;;;;;11.63;10.73;;;;;;;;;;2612928;39;20821;-74
2023/09/02 12:55:43;;;;;;;11.73;10.90;;;;;;;;;;2611531;54;20445;-74
2023/09/02 12:58:09;;;;;;;11.90;11.00;;;;;;;;;;2612199;54;20467;-74
2023/09/02 13:00:35;;;;;;;12.33;11.50;;;;;;;;;;2610435;47;20491;-75
2023/09/02 13:03:01;;;;;;;12.20;11.10;;;;;;;;;;2610665;54;20406;-73
2023/09/02 13:05:31;;;;;;;11.77;11.00;;;;;;;;;;2612169;47;20411;-75
2023/09/02 13:07:57;;;;;;;10.90;10.27;;;;;;;;;;2613034;54;20408;-74
2023/09/02 13:10:24;;;;;;;10.07;9.53;;;;;;;;;;2609820;54;20423;-75
2023/09/02 13:12:50;;;;;;;10.80;10.20;;;;;;;;;;2612982;54;20447;-74
2023/09/02 13:15:16;;;;;;;11.67;10.77;;;;;;;;;;2611447;54;20404;-74
2023/09/02 13:17:42;;;;;;;11.80;11.00;;;;;;;;;;2612024;54;20451;-75
2023/09/02 13:20:12;;;;;;;11.60;10.87;;;;;;;;;;2612383;54;20428;-73
2023/09/02 13:22:40;;;;;;;11.47;10.77;;;;;;;;;;2611846;54;20414;-74
2023/09/02 13:25:09;;;;;;;11.63;10.87;;;;;;;;;;2611826;54;20455;-74
2023/09/02 13:27:35;;;;;;;12.07;11.20;;;;;;;;;;2613111;39;20766;-74
2023/09/02 13:30:03;;;;;;;12.27;11.50;;;;;;;;;;2609623;47;20435;-74
2023/09/02 13:32:31;;;;;;;13.00;12.10;;;;;;;;;;2612827;54;20428;-75
2023/09/02 13:35:13;;;;;;;15.33;14.17;;;;;;;;;;2612032;54;20398;-74
2023/09/02 13:37:42;;;;;;;17.43;15.87;;;;;;;;;;2612685;54;20376;-74
2023/09/02 13:40:32;;;;;;;17.80;16.40;;;;;;;;;;2612876;54;20535;-74
2023/09/02 13:43:03;;;;;;;17.20;15.60;;;;;;;;;;2608457;54;20475;-74
2023/09/02 13:45:31;;;;;;;16.53;15.30;;;;;;;;;;2608426;39;20865;-74
2023/09/02 13:47:59;;;;;;;16.83;15.53;;;;;;;;;;2609615;54;21009;-74
2023/09/02 13:50:25;;;;;;;17.40;16.30;;;;;;;;;;2611599;54;20399;-75
2023/09/02 13:52:51;;;;;;;17.17;15.90;;;;;;;;;;2612515;54;21096;-74
2023/09/02 13:55:18;;;;;;;19.50;17.73;;;;;;;;;;2612470;54;20388;-74
2023/09/02 13:57:45;;;;;;;18.87;17.47;;;;;;;;;;2612620;54;20392;-74
2023/09/02 14:00:30;;;;;;;19.87;18.53;;;;;;;;;;2611567;46;20427;-73
2023/09/02 14:02:56;;;;;;;18.83;17.53;;;;;;;;;;2611448;54;20411;-74
2023/09/02 14:05:24;;;;;;;22.60;20.90;;;;;;;;;;2612316;54;20424;-72
2023/09/02 14:07:50;;;;;;;21.10;19.60;;;;;;;;;;2609667;47;21049;-73
2023/09/02 14:10:19;;;;;;;20.70;19.30;;;;;;;;;;2609830;54;20452;-72
2023/09/02 14:12:45;;;;;;;19.90;18.37;;;;;;;;;;2610603;54;20428;-74
2023/09/02 14:15:11;;;;;;;19.97;18.47;;;;;;;;;;2609713;54;21679;-69
2023/09/02 14:17:37;;;;;;;18.23;16.83;;;;;;;;;;2609398;54;20798;-70
2023/09/02 14:20:03;;;;;;;17.77;16.57;;;;;;;;;;2608133;54;20407;-70
2023/09/02 14:22:30;;;;;;;17.60;16.30;;;;;;;;;;2609167;54;20415;-72
2023/09/02 14:24:55;;;;;;;16.53;15.33;;;;;;;;;;2609978;54;20407;-72
2023/09/02 14:27:22;;;;;;;17.20;15.70;;;;;;;;;;2609518;54;20415;-72
2023/09/02 14:29:48;;;;;;;16.20;15.10;;;;;;;;;;2609962;54;20480;-73
2023/09/02 14:32:14;;;;;;;16.57;15.37;;;;;;;;;;2608891;54;20431;-71